Time;durP1;ratioP1;P1;durP2;ratioP2;P2;SDS_P1;SDS_P2;PMS_P1;PMS_P2;Temp;Humidity;BMP_temperature;BMP_pressure;BME280_temperature;BME280_humidity;BME280_pressure;Samples;Min_cycle;Max_cycle;Signal;HPM_P1;HPM_P2
2021/09/30 00:02:15;;;;;;;1.97;1.53;;;;;;;;;;5030185;28;20821;-83
2021/09/30 00:04:42;;;;;;;3.87;2.00;;;;;;;;;;5028336;28;20947;-82
2021/09/30 00:07:11;;;;;;;2.90;1.70;;;;;;;;;;5028931;28;20927;-79
2021/09/30 00:09:39;;;;;;;4.70;2.23;;;;;;;;;;5032323;28;20842;-83
2021/09/30 00:12:10;;;;;;;3.33;1.87;;;;;;;;;;5032834;28;20485;-82
2021/09/30 00:14:43;;;;;;;3.07;1.80;;;;;;;;;;5024502;28;20808;-80
2021/09/30 00:33:43;;;;;;;3.40;1.67;;;;;;;;;;4992465;28;20774;-80
2021/09/30 00:36:17;;;;;;;3.20;1.90;;;;;;;;;;5018700;28;20449;-79
2021/09/30 00:46:57;;;;;;;2.73;1.73;;;;;;;;;;5020999;28;20857;-84
2021/09/30 00:49:36;;;;;;;4.03;1.97;;;;;;;;;;5034215;28;20465;-86
2021/09/30 00:52:08;;;;;;;2.17;1.70;;;;;;;;;;5024584;28;20442;-86
2021/09/30 00:54:50;;;;;;;2.23;1.67;;;;;;;;;;5016797;28;20804;-83
2021/09/30 01:20:01;;;;;;;6.33;2.40;;;;;;;;;;5011064;28;20674;-87
2021/09/30 01:46:58;;;;;;;3.40;1.90;;;;;;;;;;5015349;28;20473;-81
2021/09/30 01:57:56;;;;;;;3.57;1.80;;;;;;;;;;5024278;28;20470;-82
2021/09/30 02:19:38;;;;;;;3.50;1.97;;;;;;;;;;5030965;28;20458;-85
2021/09/30 02:25:13;;;;;;;4.20;2.17;;;;;;;;;;5001149;28;20465;-84
2021/09/30 02:27:50;;;;;;;4.10;1.80;;;;;;;;;;5025665;28;20863;-81
2021/09/30 02:58:33;;;;;;;3.77;2.00;;;;;;;;;;5002682;28;20459;-82
2021/09/30 03:01:11;;;;;;;3.27;1.70;;;;;;;;;;4993704;28;20465;-83
2021/09/30 03:03:40;;;;;;;3.57;1.80;;;;;;;;;;5002094;28;20454;-87
2021/09/30 03:06:08;;;;;;;2.43;1.80;;;;;;;;;;5013335;28;21092;-84
2021/09/30 03:08:43;;;;;;;2.83;1.90;;;;;;;;;;5011907;28;20449;-81
2021/09/30 03:11:11;;;;;;;6.70;2.20;;;;;;;;;;5005552;28;20572;-82
2021/09/30 03:13:39;;;;;;;4.03;2.17;;;;;;;;;;4985904;28;20450;-79
2021/09/30 03:16:10;;;;;;;4.47;1.90;;;;;;;;;;5005469;28;21694;-82
2021/09/30 03:18:50;;;;;;;3.20;2.20;;;;;;;;;;5000844;28;20471;-84
2021/09/30 03:24:00;;;;;;;3.60;2.17;;;;;;;;;;5035640;28;20885;-85
2021/09/30 03:26:28;;;;;;;3.77;2.00;;;;;;;;;;5032386;28;20484;-83
2021/09/30 03:28:58;;;;;;;4.37;2.00;;;;;;;;;;5034955;28;20462;-79
2021/09/30 03:31:26;;;;;;;3.10;1.73;;;;;;;;;;5016574;28;20489;-85
2021/09/30 03:33:53;;;;;;;3.87;1.90;;;;;;;;;;5014672;28;20451;-82
2021/09/30 03:36:20;;;;;;;3.77;1.93;;;;;;;;;;5013020;28;20970;-83
2021/09/30 03:38:48;;;;;;;2.80;1.97;;;;;;;;;;5015790;28;20942;-82
2021/09/30 03:41:16;;;;;;;5.80;2.17;;;;;;;;;;5028609;28;20462;-81
2021/09/30 03:43:43;;;;;;;2.43;1.70;;;;;;;;;;5035606;28;20449;-80
2021/09/30 03:46:11;;;;;;;2.87;1.70;;;;;;;;;;5021195;28;20450;-84
2021/09/30 03:48:38;;;;;;;2.87;2.00;;;;;;;;;;5016143;28;20434;-83
2021/09/30 03:51:13;;;;;;;2.43;1.70;;;;;;;;;;5028874;28;21127;-79
2021/09/30 03:53:51;;;;;;;2.83;2.07;;;;;;;;;;5018508;28;20973;-80
2021/09/30 04:01:42;;;;;;;3.50;1.90;;;;;;;;;;5013434;28;20454;-84
2021/09/30 04:04:09;;;;;;;3.60;1.93;;;;;;;;;;5021276;28;20775;-85
2021/09/30 04:06:36;;;;;;;3.03;1.87;;;;;;;;;;5027536;28;20477;-82
2021/09/30 04:09:03;;;;;;;3.83;1.97;;;;;;;;;;5027052;28;20466;-81
2021/09/30 04:11:33;;;;;;;4.50;2.03;;;;;;;;;;5029908;28;20576;-83
2021/09/30 04:14:00;;;;;;;2.10;1.47;;;;;;;;;;5033240;28;20450;-82
2021/09/30 04:16:27;;;;;;;3.43;1.80;;;;;;;;;;5029564;28;20464;-83
2021/09/30 04:18:54;;;;;;;3.70;2.03;;;;;;;;;;5026700;28;20807;-83
2021/09/30 04:21:22;;;;;;;3.97;1.87;;;;;;;;;;5032979;28;20450;-83
2021/09/30 04:23:49;;;;;;;4.43;2.33;;;;;;;;;;5017532;28;20446;-84
2021/09/30 04:26:16;;;;;;;3.90;1.93;;;;;;;;;;5014673;28;20481;-82
2021/09/30 04:28:44;;;;;;;3.40;2.40;;;;;;;;;;5012958;28;20438;-82
2021/09/30 04:31:11;;;;;;;3.00;1.87;;;;;;;;;;5021961;28;20520;-81
2021/09/30 04:33:39;;;;;;;5.20;2.20;;;;;;;;;;5032546;28;20461;-81
2021/09/30 04:36:06;;;;;;;2.43;2.23;;;;;;;;;;5030491;28;20469;-81
2021/09/30 04:38:33;;;;;;;2.37;1.77;;;;;;;;;;5025849;28;20471;-84
2021/09/30 04:41:00;;;;;;;3.33;1.80;;;;;;;;;;5034575;28;20470;-84
2021/09/30 04:43:38;;;;;;;3.20;1.80;;;;;;;;;;5035675;28;20449;-83
2021/09/30 04:46:09;;;;;;;1.93;1.50;;;;;;;;;;5016818;28;20871;-82
2021/09/30 04:48:37;;;;;;;4.33;2.27;;;;;;;;;;5023720;28;20845;-81
2021/09/30 04:51:04;;;;;;;5.47;2.20;;;;;;;;;;5031513;28;20478;-84
2021/09/30 04:53:31;;;;;;;2.70;2.10;;;;;;;;;;5035074;28;20465;-80
2021/09/30 04:55:58;;;;;;;3.77;1.80;;;;;;;;;;5018006;28;20968;-84
2021/09/30 04:58:26;;;;;;;3.67;2.23;;;;;;;;;;5032920;28;20454;-80
2021/09/30 05:00:53;;;;;;;4.03;1.90;;;;;;;;;;5041599;28;20486;-81
2021/09/30 05:03:22;;;;;;;4.83;2.50;;;;;;;;;;5017205;28;20446;-82
2021/09/30 05:05:49;;;;;;;5.20;2.80;;;;;;;;;;5027980;28;20528;-83
2021/09/30 05:08:16;;;;;;;5.93;2.40;;;;;;;;;;5004717;28;20494;-79
2021/09/30 05:10:45;;;;;;;4.40;2.47;;;;;;;;;;5027563;28;20478;-83
2021/09/30 05:13:16;;;;;;;3.97;2.00;;;;;;;;;;5030360;28;20561;-81
2021/09/30 05:15:46;;;;;;;4.20;2.50;;;;;;;;;;5023688;28;20833;-80
2021/09/30 05:18:13;;;;;;;3.37;2.23;;;;;;;;;;5014923;28;20432;-80
2021/09/30 05:20:42;;;;;;;3.17;2.13;;;;;;;;;;5016436;28;20459;-82
2021/09/30 05:23:09;;;;;;;3.73;2.23;;;;;;;;;;5027489;28;20465;-83
2021/09/30 05:25:37;;;;;;;2.47;1.90;;;;;;;;;;5031535;28;20482;-83
2021/09/30 05:28:04;;;;;;;3.60;2.30;;;;;;;;;;5025473;28;20493;-82
2021/09/30 05:30:32;;;;;;;2.50;1.80;;;;;;;;;;5033669;28;20474;-81
2021/09/30 05:33:01;;;;;;;4.23;2.10;;;;;;;;;;5020135;28;20443;-83
2021/09/30 05:35:30;;;;;;;2.67;2.00;;;;;;;;;;5018159;28;20853;-82
2021/09/30 05:37:59;;;;;;;3.80;2.10;;;;;;;;;;5031821;28;20442;-80
2021/09/30 05:40:28;;;;;;;2.97;2.40;;;;;;;;;;5023798;28;20837;-80
2021/09/30 05:42:55;;;;;;;6.33;2.47;;;;;;;;;;5028159;28;20545;-81
2021/09/30 05:45:23;;;;;;;3.73;2.40;;;;;;;;;;5013363;28;20488;-80
2021/09/30 05:47:50;;;;;;;3.73;1.83;;;;;;;;;;5011619;28;20854;-82
2021/09/30 05:50:18;;;;;;;4.10;1.90;;;;;;;;;;5018057;28;20462;-85
2021/09/30 05:52:45;;;;;;;2.87;2.17;;;;;;;;;;5027762;28;20462;-81
2021/09/30 05:55:14;;;;;;;5.13;1.80;;;;;;;;;;5024590;28;20511;-83
2021/09/30 05:57:43;;;;;;;3.20;2.00;;;;;;;;;;5018359;28;20949;-81
2021/09/30 06:00:15;;;;;;;3.43;1.87;;;;;;;;;;5013748;28;20496;-80
2021/09/30 06:10:50;;;;;;;1.80;1.70;;;;;;;;;;5027478;28;20484;-83
2021/09/30 06:13:23;;;;;;;3.10;2.00;;;;;;;;;;5029367;28;20449;-82
2021/09/30 06:15:51;;;;;;;3.30;2.00;;;;;;;;;;5010817;28;20454;-81
2021/09/30 06:18:18;;;;;;;2.43;1.90;;;;;;;;;;5023615;28;20447;-83
2021/09/30 06:20:46;;;;;;;4.43;2.17;;;;;;;;;;5015953;28;20459;-82
2021/09/30 06:23:13;;;;;;;3.33;2.00;;;;;;;;;;5013682;28;20959;-81
2021/09/30 06:25:40;;;;;;;3.57;2.17;;;;;;;;;;5017053;28;20484;-79
2021/09/30 06:28:09;;;;;;;3.60;2.23;;;;;;;;;;5026641;28;20478;-80
2021/09/30 06:30:36;;;;;;;2.97;2.13;;;;;;;;;;5022211;28;20501;-78
2021/09/30 06:33:03;;;;;;;5.40;2.37;;;;;;;;;;4990079;28;20458;-78
2021/09/30 06:35:30;;;;;;;3.53;2.33;;;;;;;;;;5012259;28;20798;-77
2021/09/30 06:37:57;;;;;;;5.87;3.00;;;;;;;;;;5024181;28;20886;-78
2021/09/30 06:40:25;;;;;;;3.87;2.87;;;;;;;;;;5022612;28;20484;-77
2021/09/30 06:42:52;;;;;;;3.10;2.30;;;;;;;;;;5033333;28;20457;-79
2021/09/30 06:45:20;;;;;;;4.50;2.10;;;;;;;;;;5030281;28;20918;-78
2021/09/30 06:47:47;;;;;;;2.33;1.97;;;;;;;;;;5034758;28;20489;-77
2021/09/30 06:50:15;;;;;;;2.90;2.20;;;;;;;;;;5019080;28;20548;-79
2021/09/30 06:52:43;;;;;;;6.43;2.83;;;;;;;;;;5023877;28;20817;-80
2021/09/30 06:55:10;;;;;;;6.53;2.80;;;;;;;;;;5034152;28;20442;-79
2021/09/30 06:57:38;;;;;;;4.63;2.43;;;;;;;;;;5032065;28;20829;-77
2021/09/30 07:00:09;;;;;;;3.43;2.30;;;;;;;;;;5037113;28;20832;-80
2021/09/30 07:02:39;;;;;;;4.83;2.40;;;;;;;;;;5026340;28;20494;-77
2021/09/30 07:05:07;;;;;;;4.07;3.00;;;;;;;;;;5010326;28;20453;-79
2021/09/30 07:07:34;;;;;;;3.97;2.43;;;;;;;;;;5018601;28;21217;-76
2021/09/30 07:10:06;;;;;;;4.07;2.57;;;;;;;;;;5029695;28;20973;-79
2021/09/30 07:12:35;;;;;;;5.37;2.80;;;;;;;;;;5046018;28;20469;-82
2021/09/30 07:15:02;;;;;;;2.47;2.23;;;;;;;;;;5027041;28;20462;-76
2021/09/30 07:17:29;;;;;;;6.53;3.43;;;;;;;;;;5026392;28;20463;-77
2021/09/30 07:19:58;;;;;;;7.67;3.73;;;;;;;;;;5028489;28;20483;-82
2021/09/30 07:22:26;;;;;;;5.10;2.90;;;;;;;;;;5017746;28;20481;-80
2021/09/30 07:24:53;;;;;;;5.67;3.00;;;;;;;;;;5004587;28;20487;-78
2021/09/30 07:27:20;;;;;;;4.93;2.70;;;;;;;;;;5021244;28;20459;-77
2021/09/30 07:29:47;;;;;;;5.27;2.33;;;;;;;;;;5042618;28;20469;-78
2021/09/30 07:32:14;;;;;;;5.83;2.27;;;;;;;;;;5026308;28;20455;-79
2021/09/30 07:34:42;;;;;;;5.30;2.40;;;;;;;;;;5019665;28;21215;-77
2021/09/30 07:37:10;;;;;;;7.07;2.47;;;;;;;;;;5018415;28;20465;-79
2021/09/30 07:39:37;;;;;;;4.73;2.10;;;;;;;;;;5015345;28;20507;-77
2021/09/30 07:42:10;;;;;;;6.00;3.20;;;;;;;;;;5027676;28;20463;-77
2021/09/30 07:44:38;;;;;;;3.80;2.23;;;;;;;;;;5027981;28;20572;-77
2021/09/30 07:47:05;;;;;;;5.50;2.87;;;;;;;;;;5015585;28;20452;-77
2021/09/30 07:54:58;;;;;;;;;;;;;;;;;;;;;
2021/09/30 07:57:25;;;;;;;4.90;2.07;;;;;;;;;;5036990;28;20793;-80
2021/09/30 07:59:55;;;;;;;8.73;2.97;;;;;;;;;;5048427;28;20467;-76
2021/09/30 08:02:22;;;;;;;6.20;2.30;;;;;;;;;;5053346;28;20464;-77
2021/09/30 08:04:49;;;;;;;4.57;2.37;;;;;;;;;;5064134;28;20810;-84
2021/09/30 08:07:17;;;;;;;3.53;1.90;;;;;;;;;;5072786;28;20436;-79
2021/09/30 08:09:45;;;;;;;4.43;2.53;;;;;;;;;;5067842;28;20900;-82
2021/09/30 08:12:12;;;;;;;4.43;2.40;;;;;;;;;;5069402;28;21073;-80
2021/09/30 08:14:39;;;;;;;4.40;2.00;;;;;;;;;;5074722;28;20471;-79
2021/09/30 08:17:07;;;;;;;3.10;2.23;;;;;;;;;;5066631;28;20460;-78
2021/09/30 08:19:34;;;;;;;5.10;2.47;;;;;;;;;;5071841;28;20576;-81
2021/09/30 08:22:01;;;;;;;5.30;2.20;;;;;;;;;;5071987;28;20445;-82
2021/09/30 08:24:48;;;;;;;5.97;2.23;;;;;;;;;;5049817;28;20457;-82
2021/09/30 08:27:16;;;;;;;3.00;2.40;;;;;;;;;;5058210;28;20463;-84
2021/09/30 08:29:43;;;;;;;3.83;2.10;;;;;;;;;;5070771;28;20575;-82
2021/09/30 08:32:11;;;;;;;3.80;2.47;;;;;;;;;;5069421;28;20825;-80
2021/09/30 08:34:38;;;;;;;5.33;2.53;;;;;;;;;;5069695;28;20522;-81
2021/09/30 08:37:05;;;;;;;3.37;2.10;;;;;;;;;;5059176;28;20584;-80
2021/09/30 08:39:43;;;;;;;4.73;2.03;;;;;;;;;;5049496;28;20472;-80
2021/09/30 08:42:10;;;;;;;4.47;1.90;;;;;;;;;;5066000;28;20498;-82
2021/09/30 08:44:39;;;;;;;3.67;2.10;;;;;;;;;;5071222;28;20425;-83
2021/09/30 08:47:06;;;;;;;6.63;2.40;;;;;;;;;;5061211;28;20439;-80
2021/09/30 08:49:34;;;;;;;5.77;2.40;;;;;;;;;;5062064;28;20458;-82
2021/09/30 08:52:01;;;;;;;3.37;1.90;;;;;;;;;;5070739;28;20907;-80
2021/09/30 08:54:29;;;;;;;4.10;2.10;;;;;;;;;;5052109;28;20543;-81
2021/09/30 08:56:56;;;;;;;6.77;2.10;;;;;;;;;;5073198;28;20803;-82
2021/09/30 08:59:26;;;;;;;4.30;1.77;;;;;;;;;;5062272;28;20492;-85
2021/09/30 09:02:06;;;;;;;2.63;1.97;;;;;;;;;;5058033;28;20454;-80
2021/09/30 09:04:33;;;;;;;3.63;1.97;;;;;;;;;;5045372;28;20439;-81
2021/09/30 09:07:08;;;;;;;5.07;2.50;;;;;;;;;;5066902;28;21146;-80
2021/09/30 09:09:36;;;;;;;5.57;1.70;;;;;;;;;;5067172;28;20968;-79
2021/09/30 09:12:07;;;;;;;2.80;1.50;;;;;;;;;;5064472;28;20432;-78
2021/09/30 09:14:50;;;;;;;5.87;1.90;;;;;;;;;;5070640;28;20926;-78
2021/09/30 09:20:20;;;;;;;5.73;1.93;;;;;;;;;;5033124;28;20969;-77
2021/09/30 09:22:47;;;;;;;6.90;1.97;;;;;;;;;;5058918;28;21086;-79
2021/09/30 09:25:16;;;;;;;1.93;1.50;;;;;;;;;;5057152;28;20798;-79
2021/09/30 09:27:47;;;;;;;4.13;2.00;;;;;;;;;;5059467;28;20461;-80
2021/09/30 09:30:25;;;;;;;3.00;1.60;;;;;;;;;;5044192;28;20479;-79
2021/09/30 09:33:00;;;;;;;3.47;1.57;;;;;;;;;;5064382;28;20496;-78
2021/09/30 09:35:29;;;;;;;4.53;1.90;;;;;;;;;;5069698;28;20408;-79
2021/09/30 09:38:02;;;;;;;4.13;1.43;;;;;;;;;;5056659;28;20446;-78
2021/09/30 09:40:29;;;;;;;6.50;1.67;;;;;;;;;;5053121;28;20876;-79
2021/09/30 09:42:57;;;;;;;4.53;1.70;;;;;;;;;;5057127;28;20417;-81
2021/09/30 09:45:24;;;;;;;2.47;1.50;;;;;;;;;;5070899;28;20495;-82
2021/09/30 09:47:51;;;;;;;3.70;1.70;;;;;;;;;;5061419;28;20422;-81
2021/09/30 09:50:19;;;;;;;7.70;1.90;;;;;;;;;;5052740;28;20476;-80
2021/09/30 09:52:50;;;;;;;4.30;1.83;;;;;;;;;;5054178;28;20482;-80
2021/09/30 09:55:18;;;;;;;4.30;1.80;;;;;;;;;;5055021;28;20465;-78
2021/09/30 09:58:00;;;;;;;4.00;2.33;;;;;;;;;;5067392;28;20549;-83
2021/09/30 10:00:28;;;;;;;3.73;1.90;;;;;;;;;;5039656;28;20459;-78
2021/09/30 10:02:56;;;;;;;3.70;1.60;;;;;;;;;;5070607;28;20448;-79
2021/09/30 10:05:27;;;;;;;5.13;2.00;;;;;;;;;;5052014;28;20468;-81
2021/09/30 10:07:55;;;;;;;2.93;1.97;;;;;;;;;;5055917;28;20461;-80
2021/09/30 10:10:23;;;;;;;3.10;1.47;;;;;;;;;;5062270;28;20486;-81
2021/09/30 10:12:50;;;;;;;3.13;2.03;;;;;;;;;;5069214;28;20458;-83
2021/09/30 10:15:18;;;;;;;3.60;1.63;;;;;;;;;;5063002;28;20983;-82
2021/09/30 10:17:45;;;;;;;5.13;2.00;;;;;;;;;;5066471;28;20435;-80
2021/09/30 10:20:14;;;;;;;4.07;1.50;;;;;;;;;;5068693;28;20457;-83
2021/09/30 10:22:41;;;;;;;4.50;1.83;;;;;;;;;;5064246;28;21278;-81
2021/09/30 10:25:10;;;;;;;2.50;1.50;;;;;;;;;;5061128;28;20744;-80
2021/09/30 10:27:38;;;;;;;2.33;1.40;;;;;;;;;;5058363;28;21155;-81
2021/09/30 10:30:06;;;;;;;4.10;1.80;;;;;;;;;;5066316;28;20517;-78
2021/09/30 10:32:49;;;;;;;3.03;1.53;;;;;;;;;;5063103;28;20463;-78
2021/09/30 10:35:31;;;;;;;4.10;1.77;;;;;;;;;;5070809;28;20453;-76
2021/09/30 10:38:15;;;;;;;5.90;1.80;;;;;;;;;;5057492;28;20444;-78
2021/09/30 10:40:57;;;;;;;3.40;1.30;;;;;;;;;;5057807;28;20476;-77
2021/09/30 10:43:26;;;;;;;4.60;1.80;;;;;;;;;;5038266;28;20442;-76
2021/09/30 10:45:53;;;;;;;3.10;1.80;;;;;;;;;;5066843;28;20827;-80
2021/09/30 10:48:35;;;;;;;4.33;1.70;;;;;;;;;;5073739;28;20432;-79
2021/09/30 10:51:07;;;;;;;8.10;2.03;;;;;;;;;;5051500;28;20448;-80
2021/09/30 10:53:50;;;;;;;3.73;1.80;;;;;;;;;;5054000;28;20468;-79
2021/09/30 10:56:37;;;;;;;4.80;1.77;;;;;;;;;;5040674;28;20415;-80
2021/09/30 10:59:26;;;;;;;4.03;1.93;;;;;;;;;;5034870;28;20438;-79
2021/09/30 11:02:02;;;;;;;7.20;1.60;;;;;;;;;;5032130;28;20924;-77
2021/09/30 11:04:29;;;;;;;6.10;2.00;;;;;;;;;;5034813;28;20426;-78
2021/09/30 11:07:11;;;;;;;2.33;1.40;;;;;;;;;;5055264;28;20451;-81
2021/09/30 11:09:38;;;;;;;4.37;1.70;;;;;;;;;;5031858;28;20481;-77
2021/09/30 11:12:09;;;;;;;1.57;1.10;;;;;;;;;;5047047;28;20440;-76
2021/09/30 11:14:52;;;;;;;3.00;1.50;;;;;;;;;;5034157;28;20446;-80
2021/09/30 11:17:35;;;;;;;4.83;1.30;;;;;;;;;;5051176;28;20425;-80
2021/09/30 11:20:17;;;;;;;3.40;1.87;;;;;;;;;;5032545;28;20873;-78
2021/09/30 11:22:44;;;;;;;6.20;1.70;;;;;;;;;;5038374;28;20424;-79
2021/09/30 11:25:11;;;;;;;6.03;2.20;;;;;;;;;;5057088;28;20493;-78
2021/09/30 11:27:39;;;;;;;4.87;1.90;;;;;;;;;;5055104;28;20435;-75
2021/09/30 11:30:21;;;;;;;4.30;1.60;;;;;;;;;;5050212;28;20499;-77
2021/09/30 11:32:49;;;;;;;5.33;1.70;;;;;;;;;;5053813;28;20446;-76
2021/09/30 11:35:17;;;;;;;4.43;1.80;;;;;;;;;;5053112;28;20453;-78
2021/09/30 11:37:45;;;;;;;4.70;1.73;;;;;;;;;;5044183;28;20460;-78
2021/09/30 11:40:15;;;;;;;4.40;1.57;;;;;;;;;;5049601;28;20431;-77
2021/09/30 11:42:43;;;;;;;4.47;1.50;;;;;;;;;;5051375;28;20445;-77
2021/09/30 11:45:12;;;;;;;2.83;1.30;;;;;;;;;;5046191;28;20462;-79
2021/09/30 11:47:40;;;;;;;3.43;1.50;;;;;;;;;;5053453;28;20833;-81
2021/09/30 11:50:10;;;;;;;2.10;1.37;;;;;;;;;;5046856;28;20468;-78
2021/09/30 11:52:37;;;;;;;2.83;1.57;;;;;;;;;;5047840;28;20458;-76
2021/09/30 11:55:13;;;;;;;3.63;1.53;;;;;;;;;;5055871;28;21003;-78
2021/09/30 11:57:40;;;;;;;2.40;1.30;;;;;;;;;;5057671;28;20426;-81
2021/09/30 12:00:09;;;;;;;3.70;1.40;;;;;;;;;;5071632;28;20432;-77
2021/09/30 12:02:36;;;;;;;1.80;1.30;;;;;;;;;;5072200;28;20441;-77
2021/09/30 12:05:03;;;;;;;5.87;1.80;;;;;;;;;;5071621;28;20437;-80
2021/09/30 12:07:32;;;;;;;4.77;1.50;;;;;;;;;;5066529;28;20438;-80
2021/09/30 12:10:01;;;;;;;3.53;1.60;;;;;;;;;;5054777;28;21467;-79
2021/09/30 12:12:28;;;;;;;4.57;1.30;;;;;;;;;;5066868;28;20968;-82
2021/09/30 12:14:57;;;;;;;4.93;1.47;;;;;;;;;;5072316;28;20769;-77
2021/09/30 12:17:24;;;;;;;2.83;1.60;;;;;;;;;;5062194;28;20466;-83
2021/09/30 12:19:53;;;;;;;2.37;1.50;;;;;;;;;;5051175;28;20491;-78
2021/09/30 12:22:22;;;;;;;2.40;1.30;;;;;;;;;;5071394;28;20474;-76
2021/09/30 12:24:51;;;;;;;2.07;1.23;;;;;;;;;;5057713;28;20444;-75
2021/09/30 12:27:18;;;;;;;1.80;1.17;;;;;;;;;;5062996;28;20802;-77
2021/09/30 12:29:46;;;;;;;2.23;1.30;;;;;;;;;;5072323;28;20482;-78
2021/09/30 12:32:15;;;;;;;2.70;1.33;;;;;;;;;;5052367;28;20438;-77
2021/09/30 12:34:44;;;;;;;3.57;1.80;;;;;;;;;;5050273;28;20437;-79
2021/09/30 12:37:12;;;;;;;3.00;1.30;;;;;;;;;;5042924;28;20982;-81
2021/09/30 12:39:39;;;;;;;2.70;1.50;;;;;;;;;;5055862;28;20475;-79
2021/09/30 12:42:16;;;;;;;5.20;1.77;;;;;;;;;;5058923;28;20459;-80
2021/09/30 12:44:49;;;;;;;2.20;1.20;;;;;;;;;;5068615;28;20458;-78
2021/09/30 12:47:29;;;;;;;6.47;1.63;;;;;;;;;;5049831;28;20424;-77
2021/09/30 12:50:00;;;;;;;3.10;1.30;;;;;;;;;;5056362;28;20513;-76
2021/09/30 12:52:27;;;;;;;3.90;1.83;;;;;;;;;;5075475;28;20441;-81
2021/09/30 12:54:54;;;;;;;1.90;1.30;;;;;;;;;;5071138;28;20431;-77
2021/09/30 12:57:23;;;;;;;4.80;1.37;;;;;;;;;;5055223;28;20487;-80
2021/09/30 13:00:05;;;;;;;5.13;1.47;;;;;;;;;;5057896;28;20450;-77
2021/09/30 13:02:32;;;;;;;3.20;1.20;;;;;;;;;;5050261;28;20455;-79
2021/09/30 13:04:59;;;;;;;4.10;1.43;;;;;;;;;;5062903;28;20447;-81
2021/09/30 13:07:26;;;;;;;1.50;1.00;;;;;;;;;;5060840;28;20440;-76
2021/09/30 13:10:02;;;;;;;2.83;1.33;;;;;;;;;;5072817;28;20830;-76
2021/09/30 13:12:31;;;;;;;2.50;1.50;;;;;;;;;;5035443;28;20442;-79
2021/09/30 13:14:59;;;;;;;2.87;1.60;;;;;;;;;;5059728;28;20460;-78
2021/09/30 13:17:26;;;;;;;3.00;1.53;;;;;;;;;;5054917;28;20457;-78
2021/09/30 13:19:54;;;;;;;2.87;1.50;;;;;;;;;;5058432;28;20949;-76
2021/09/30 13:22:22;;;;;;;2.10;1.20;;;;;;;;;;5070745;28;20443;-79
2021/09/30 13:24:51;;;;;;;4.03;1.30;;;;;;;;;;5062823;28;20838;-79
2021/09/30 13:27:19;;;;;;;2.83;1.30;;;;;;;;;;5069465;28;20796;-78
2021/09/30 13:29:48;;;;;;;4.10;1.30;;;;;;;;;;5070494;28;20454;-83
2021/09/30 13:32:16;;;;;;;4.43;1.53;;;;;;;;;;5068882;28;20543;-78
2021/09/30 13:34:44;;;;;;;1.83;1.27;;;;;;;;;;5047332;28;20459;-81
2021/09/30 13:37:11;;;;;;;4.20;1.47;;;;;;;;;;5067661;28;20459;-81
2021/09/30 13:39:38;;;;;;;2.87;1.30;;;;;;;;;;5059719;28;21432;-78
2021/09/30 13:42:07;;;;;;;2.20;1.33;;;;;;;;;;5057510;28;20473;-78
2021/09/30 13:44:34;;;;;;;3.20;1.47;;;;;;;;;;5063932;28;20460;-77
2021/09/30 13:47:03;;;;;;;4.20;1.53;;;;;;;;;;5069112;28;20436;-81
2021/09/30 13:49:30;;;;;;;4.20;1.63;;;;;;;;;;5063719;28;20984;-81
2021/09/30 13:51:57;;;;;;;2.10;1.70;;;;;;;;;;5069201;28;20453;-76
2021/09/30 13:54:25;;;;;;;2.70;1.63;;;;;;;;;;5061974;28;20486;-77
2021/09/30 13:56:52;;;;;;;3.17;1.20;;;;;;;;;;5056516;28;20459;-76
2021/09/30 13:59:19;;;;;;;2.70;1.50;;;;;;;;;;5057289;28;20480;-81
2021/09/30 14:01:46;;;;;;;5.37;1.77;;;;;;;;;;5052945;28;20805;-80
2021/09/30 14:04:15;;;;;;;3.13;1.60;;;;;;;;;;5058424;28;20450;-80
2021/09/30 14:06:42;;;;;;;2.03;1.40;;;;;;;;;;5058422;28;20456;-78
2021/09/30 14:09:09;;;;;;;4.87;1.63;;;;;;;;;;5066858;28;20464;-78
2021/09/30 14:11:36;;;;;;;2.47;1.60;;;;;;;;;;5057051;28;20919;-80
2021/09/30 14:14:03;;;;;;;3.77;1.50;;;;;;;;;;5043799;28;20429;-79
2021/09/30 14:16:31;;;;;;;3.73;1.40;;;;;;;;;;5069940;28;20433;-78
2021/09/30 14:18:58;;;;;;;3.83;1.83;;;;;;;;;;5063823;28;20444;-80
2021/09/30 14:21:27;;;;;;;3.80;1.53;;;;;;;;;;5067096;28;20520;-81
2021/09/30 14:23:54;;;;;;;4.53;1.33;;;;;;;;;;5062361;28;20452;-79
2021/09/30 14:26:21;;;;;;;3.57;1.90;;;;;;;;;;5056780;28;20934;-76
2021/09/30 14:28:48;;;;;;;3.10;2.10;;;;;;;;;;5052567;28;20428;-78
2021/09/30 14:31:15;;;;;;;4.20;1.63;;;;;;;;;;5053308;28;20492;-79
2021/09/30 14:33:42;;;;;;;2.20;1.50;;;;;;;;;;5060559;28;21021;-80
2021/09/30 14:36:10;;;;;;;7.03;1.50;;;;;;;;;;5071435;28;20413;-81
2021/09/30 14:38:38;;;;;;;2.40;1.30;;;;;;;;;;5069673;28;20436;-77
2021/09/30 14:41:05;;;;;;;4.20;1.47;;;;;;;;;;5068839;28;20465;-81
2021/09/30 14:43:36;;;;;;;1.47;1.30;;;;;;;;;;5063214;28;20432;-79
2021/09/30 14:46:04;;;;;;;4.30;1.77;;;;;;;;;;5063562;28;20841;-78
2021/09/30 14:48:31;;;;;;;2.23;1.30;;;;;;;;;;5055137;28;20461;-76
2021/09/30 14:50:58;;;;;;;2.60;1.20;;;;;;;;;;5051602;28;20451;-77
2021/09/30 14:53:25;;;;;;;2.37;1.63;;;;;;;;;;5041626;28;20818;-78
2021/09/30 14:55:54;;;;;;;3.30;1.63;;;;;;;;;;5050550;28;20440;-78
2021/09/30 14:58:21;;;;;;;3.97;1.73;;;;;;;;;;5055018;28;20409;-79
2021/09/30 15:00:48;;;;;;;4.23;1.93;;;;;;;;;;5050558;28;20471;-79
2021/09/30 15:03:15;;;;;;;3.20;1.53;;;;;;;;;;5047893;28;20470;-80
2021/09/30 15:05:43;;;;;;;2.90;1.43;;;;;;;;;;5056669;28;20944;-77
2021/09/30 15:08:11;;;;;;;4.93;1.73;;;;;;;;;;5053070;28;20993;-79
2021/09/30 15:10:38;;;;;;;1.90;1.20;;;;;;;;;;5047754;28;20459;-80
2021/09/30 15:13:07;;;;;;;3.10;1.50;;;;;;;;;;5052407;28;20426;-78
2021/09/30 15:15:35;;;;;;;3.37;1.43;;;;;;;;;;5032480;28;21100;-78
2021/09/30 15:18:03;;;;;;;2.77;1.40;;;;;;;;;;5050383;28;20485;-81
2021/09/30 15:23:15;;;;;;;3.13;1.50;;;;;;;;;;5047690;28;20436;-80
2021/09/30 15:25:43;;;;;;;3.27;1.60;;;;;;;;;;5056719;28;20779;-84
2021/09/30 15:28:14;;;;;;;3.00;1.73;;;;;;;;;;5055123;28;20438;-80
2021/09/30 15:30:41;;;;;;;2.00;1.30;;;;;;;;;;5046690;28;20460;-82
2021/09/30 15:33:10;;;;;;;2.80;1.43;;;;;;;;;;5049984;28;20413;-80
2021/09/30 15:35:37;;;;;;;2.90;1.47;;;;;;;;;;5056543;28;20879;-82
2021/09/30 15:38:04;;;;;;;4.27;1.77;;;;;;;;;;5047766;28;20971;-79
2021/09/30 15:40:32;;;;;;;3.80;1.27;;;;;;;;;;5046855;28;20437;-78
2021/09/30 15:42:59;;;;;;;4.07;1.77;;;;;;;;;;5052474;28;20470;-79
2021/09/30 15:45:28;;;;;;;2.20;1.47;;;;;;;;;;5053147;28;20450;-77
2021/09/30 15:47:55;;;;;;;3.70;1.50;;;;;;;;;;5071539;28;20416;-79
2021/09/30 15:50:23;;;;;;;1.83;1.20;;;;;;;;;;5063929;28;20458;-79
2021/09/30 15:52:51;;;;;;;3.03;1.50;;;;;;;;;;5055500;28;20447;-77
2021/09/30 15:55:18;;;;;;;3.53;1.73;;;;;;;;;;5056256;28;21262;-79
2021/09/30 15:57:45;;;;;;;4.20;1.63;;;;;;;;;;5053915;28;20466;-76
2021/09/30 16:00:13;;;;;;;4.47;1.67;;;;;;;;;;5069751;28;20439;-79
2021/09/30 16:02:41;;;;;;;2.80;1.63;;;;;;;;;;5041039;28;20451;-77
2021/09/30 16:05:09;;;;;;;2.33;2.03;;;;;;;;;;5052340;28;20429;-81
2021/09/30 16:07:36;;;;;;;2.37;1.70;;;;;;;;;;5052982;28;20450;-81
2021/09/30 16:10:03;;;;;;;1.80;1.60;;;;;;;;;;5048638;28;20475;-77
2021/09/30 16:12:30;;;;;;;3.00;1.80;;;;;;;;;;5047993;28;20770;-79
2021/09/30 16:14:57;;;;;;;2.93;1.80;;;;;;;;;;5053470;28;20450;-78
2021/09/30 16:17:24;;;;;;;3.67;1.90;;;;;;;;;;5052814;28;20413;-78
2021/09/30 16:19:53;;;;;;;2.97;1.87;;;;;;;;;;5044053;28;20489;-77
2021/09/30 16:22:22;;;;;;;3.10;2.13;;;;;;;;;;5051566;28;20441;-78
2021/09/30 16:24:50;;;;;;;3.40;2.00;;;;;;;;;;5052871;28;20428;-79
2021/09/30 16:27:17;;;;;;;3.07;1.77;;;;;;;;;;5052904;28;20435;-77
2021/09/30 16:29:45;;;;;;;2.30;1.60;;;;;;;;;;5051077;28;20801;-79
2021/09/30 16:32:12;;;;;;;2.37;1.93;;;;;;;;;;5055985;28;20482;-76
2021/09/30 16:34:39;;;;;;;3.60;1.90;;;;;;;;;;5056362;28;20438;-78
2021/09/30 16:37:08;;;;;;;2.20;1.77;;;;;;;;;;5046925;28;20453;-79
2021/09/30 16:39:35;;;;;;;6.43;1.90;;;;;;;;;;5022187;28;20484;-82
2021/09/30 16:42:03;;;;;;;2.37;2.03;;;;;;;;;;5044438;28;20465;-77
2021/09/30 16:44:30;;;;;;;2.00;1.77;;;;;;;;;;5044815;28;20460;-76
2021/09/30 16:46:57;;;;;;;3.90;2.20;;;;;;;;;;5042006;28;21107;-80
2021/09/30 16:49:24;;;;;;;4.30;2.00;;;;;;;;;;5051741;28;20457;-78
2021/09/30 16:51:53;;;;;;;2.97;1.67;;;;;;;;;;5033310;28;20854;-78
2021/09/30 16:54:22;;;;;;;4.60;1.90;;;;;;;;;;5065736;28;20659;-77
2021/09/30 16:56:51;;;;;;;2.20;1.50;;;;;;;;;;5057734;28;20913;-77
2021/09/30 16:59:18;;;;;;;2.17;1.73;;;;;;;;;;5057324;28;20468;-77
2021/09/30 17:01:47;;;;;;;2.87;1.97;;;;;;;;;;5057365;28;20444;-78
2021/09/30 17:04:17;;;;;;;3.83;2.30;;;;;;;;;;5039746;28;20452;-78
2021/09/30 17:06:44;;;;;;;3.20;2.13;;;;;;;;;;5054545;28;20460;-83
2021/09/30 17:09:11;;;;;;;2.67;2.20;;;;;;;;;;5061602;28;20554;-81
2021/09/30 17:11:40;;;;;;;4.90;2.20;;;;;;;;;;5053517;28;20974;-79
2021/09/30 17:14:07;;;;;;;4.50;2.40;;;;;;;;;;5065928;28;20440;-79
2021/09/30 17:16:35;;;;;;;4.40;2.00;;;;;;;;;;5068462;28;20444;-80
2021/09/30 17:19:02;;;;;;;2.03;1.80;;;;;;;;;;5057033;28;20454;-81
2021/09/30 17:21:30;;;;;;;4.23;2.33;;;;;;;;;;5063345;28;20535;-80
2021/09/30 17:23:57;;;;;;;2.70;1.67;;;;;;;;;;5059053;28;20464;-79
2021/09/30 17:26:24;;;;;;;4.20;2.13;;;;;;;;;;5054169;28;20461;-78
2021/09/30 17:28:53;;;;;;;4.13;2.10;;;;;;;;;;5056260;28;20452;-77
2021/09/30 17:31:26;;;;;;;5.20;2.40;;;;;;;;;;5068114;28;21079;-78
2021/09/30 17:33:56;;;;;;;3.53;2.00;;;;;;;;;;5070926;28;20502;-78